createdAt,value
2018-10-11T00:00:02.230Z,0.00
2018-10-11T00:01:02.230Z,0.00
2018-10-11T00:02:02.227Z,0.00
2018-10-11T00:03:02.224Z,0.00
2018-10-11T00:04:02.226Z,0.00
2018-10-11T00:05:02.224Z,0.00
2018-10-11T00:06:02.227Z,0.00
2018-10-11T00:07:02.222Z,0.00
2018-10-11T00:08:02.221Z,0.00
2018-10-11T00:09:02.219Z,0.00
2018-10-11T00:10:02.219Z,0.00
2018-10-11T00:11:02.217Z,0.00
2018-10-11T00:12:02.216Z,0.00
2018-10-11T00:13:02.215Z,0.00
2018-10-11T00:14:02.214Z,0.00
2018-10-11T00:15:02.212Z,0.00
2018-10-11T00:16:02.211Z,0.00
2018-10-11T00:17:02.209Z,0.00
2018-10-11T00:18:02.210Z,0.00
2018-10-11T00:19:02.207Z,0.00
2018-10-11T00:20:02.282Z,0.00
2018-10-11T00:21:02.205Z,0.00
2018-10-11T00:22:02.207Z,0.00
2018-10-11T00:23:02.204Z,0.00
2018-10-11T00:24:02.201Z,0.00
2018-10-11T00:25:02.201Z,0.00
2018-10-11T00:26:02.200Z,0.00
2018-10-11T00:27:02.198Z,0.00
2018-10-11T00:28:02.201Z,0.00
2018-10-11T00:29:02.195Z,0.00
2018-10-11T00:30:02.194Z,0.00
2018-10-11T00:31:02.194Z,0.00
2018-10-11T00:32:02.196Z,0.00
2018-10-11T00:33:02.193Z,0.00
2018-10-11T00:34:02.190Z,0.00
2018-10-11T00:35:02.187Z,0.00
2018-10-11T00:36:02.186Z,0.00
2018-10-11T00:37:02.189Z,0.00
2018-10-11T00:38:02.183Z,0.00
2018-10-11T00:39:02.181Z,0.00
2018-10-11T00:40:02.181Z,0.00
2018-10-11T00:41:02.183Z,0.00
2018-10-11T00:42:02.179Z,0.00
2018-10-11T00:43:02.176Z,0.00
2018-10-11T00:44:02.176Z,0.00
2018-10-11T00:45:02.174Z,0.00
2018-10-11T00:46:02.172Z,0.00
2018-10-11T00:47:02.172Z,0.00
2018-10-11T00:48:02.172Z,0.00
2018-10-11T00:49:02.168Z,0.00
2018-10-11T00:50:02.174Z,0.00
2018-10-11T00:51:02.166Z,0.00
2018-10-11T00:52:02.165Z,0.00
2018-10-11T00:53:02.164Z,0.00
2018-10-11T00:54:02.162Z,0.00
2018-10-11T00:55:02.160Z,0.00
2018-10-11T00:56:02.158Z,0.00
2018-10-11T00:57:02.158Z,0.00
2018-10-11T00:58:02.156Z,0.00
2018-10-11T00:59:02.157Z,0.00
2018-10-11T01:00:02.154Z,0.00
2018-10-11T01:01:02.153Z,0.00
2018-10-11T01:02:02.152Z,0.00
2018-10-11T01:03:02.151Z,0.00
2018-10-11T01:04:02.147Z,0.00
2018-10-11T01:05:02.146Z,0.00
2018-10-11T01:06:02.146Z,0.00
2018-10-11T01:07:02.142Z,0.00
2018-10-11T01:08:02.141Z,0.00
2018-10-11T01:09:02.140Z,0.00
2018-10-11T01:10:02.155Z,0.00
2018-10-11T01:11:02.138Z,0.00
2018-10-11T01:12:02.136Z,0.00
2018-10-11T01:13:02.136Z,0.00
2018-10-11T01:14:02.134Z,0.00
2018-10-11T01:15:02.130Z,0.00
2018-10-11T01:16:02.130Z,0.00
2018-10-11T01:17:02.130Z,0.00
2018-10-11T01:18:02.128Z,0.00
2018-10-11T01:19:02.124Z,0.00
2018-10-11T01:20:02.124Z,0.00
2018-10-11T01:21:02.121Z,0.00
2018-10-11T01:22:02.120Z,0.00
2018-10-11T01:23:02.119Z,0.00
2018-10-11T01:24:02.117Z,0.00
2018-10-11T01:25:02.118Z,0.00
2018-10-11T01:26:02.113Z,0.00
2018-10-11T01:27:02.112Z,0.00
2018-10-11T01:28:02.111Z,0.00
2018-10-11T01:29:02.108Z,0.00
2018-10-11T01:30:02.148Z,0.00
2018-10-11T01:31:02.107Z,0.00
2018-10-11T01:32:02.102Z,0.00
2018-10-11T01:33:02.102Z,0.00
2018-10-11T01:34:02.099Z,0.00
2018-10-11T01:35:02.103Z,0.00
2018-10-11T01:36:02.096Z,0.00
2018-10-11T01:37:02.094Z,0.00
2018-10-11T01:38:02.092Z,0.00
2018-10-11T01:39:02.094Z,0.00
2018-10-11T01:40:02.089Z,0.00
2018-10-11T01:41:02.088Z,0.00
2018-10-11T01:42:02.087Z,0.00
2018-10-11T01:43:02.081Z,0.00
2018-10-11T01:44:02.081Z,0.00
2018-10-11T01:45:02.080Z,0.00
2018-10-11T01:46:02.076Z,0.00
2018-10-11T01:47:02.080Z,0.00
2018-10-11T01:48:02.074Z,0.00
2018-10-11T01:49:02.071Z,0.00
2018-10-11T01:50:02.070Z,0.00
2018-10-11T01:51:02.066Z,0.00
2018-10-11T01:52:02.065Z,0.00
2018-10-11T01:53:02.062Z,0.00
2018-10-11T01:54:02.061Z,0.00
2018-10-11T01:55:02.062Z,0.00
2018-10-11T01:56:02.057Z,0.00
2018-10-11T01:57:02.055Z,0.00
2018-10-11T01:58:02.052Z,0.00
2018-10-11T01:59:02.049Z,0.00
2018-10-11T02:00:02.047Z,0.00
2018-10-11T02:01:02.045Z,0.00
2018-10-11T02:02:02.043Z,0.00
2018-10-11T02:03:02.041Z,0.00
2018-10-11T02:04:02.037Z,0.00
2018-10-11T02:05:02.042Z,0.00
2018-10-11T02:06:02.035Z,0.00
2018-10-11T02:07:02.033Z,0.00
2018-10-11T02:08:02.029Z,0.00
2018-10-11T02:09:02.028Z,0.00
2018-10-11T02:10:02.027Z,0.00
2018-10-11T02:11:02.023Z,0.00
2018-10-11T02:12:02.020Z,0.00
2018-10-11T02:13:02.030Z,0.00
2018-10-11T02:14:02.023Z,0.00
2018-10-11T02:15:02.017Z,0.00
2018-10-11T02:16:02.011Z,0.00
2018-10-11T02:17:02.010Z,0.00
2018-10-11T02:18:02.008Z,0.00
2018-10-11T02:19:02.007Z,0.00
2018-10-11T02:20:02.003Z,0.00
2018-10-11T02:21:02.000Z,0.00
2018-10-11T02:22:01.998Z,0.00
2018-10-11T02:23:01.996Z,0.00
2018-10-11T02:24:01.994Z,0.00
2018-10-11T02:25:01.991Z,0.00
2018-10-11T02:26:02.014Z,0.00
2018-10-11T02:27:01.985Z,0.00
2018-10-11T02:28:01.981Z,0.00
2018-10-11T02:29:01.980Z,0.00
2018-10-11T02:30:01.977Z,0.00
2018-10-11T02:31:01.994Z,0.00
2018-10-11T02:32:02.006Z,0.00
2018-10-11T02:33:01.970Z,0.00
2018-10-11T02:34:01.968Z,0.00
2018-10-11T02:35:01.964Z,0.00
2018-10-11T02:36:01.961Z,0.00
2018-10-11T02:37:01.961Z,0.00
2018-10-11T02:38:01.962Z,0.00
2018-10-11T02:39:01.959Z,0.00
2018-10-11T02:40:01.954Z,0.00
2018-10-11T02:41:01.949Z,0.00
2018-10-11T02:42:01.947Z,0.00
2018-10-11T02:43:01.945Z,0.00
2018-10-11T02:44:01.940Z,0.00
2018-10-11T02:45:01.940Z,0.00
2018-10-11T02:46:01.937Z,0.00
2018-10-11T02:47:01.934Z,0.00
2018-10-11T02:48:01.931Z,0.00
2018-10-11T02:49:01.930Z,0.00
2018-10-11T02:50:01.927Z,0.00
2018-10-11T02:51:01.944Z,0.00
2018-10-11T02:52:01.922Z,0.00
2018-10-11T02:53:01.918Z,0.00
2018-10-11T02:54:01.915Z,0.00
2018-10-11T02:55:01.957Z,0.00
2018-10-11T02:56:01.909Z,0.00
2018-10-11T02:57:01.907Z,0.00
2018-10-11T02:58:01.905Z,0.00
2018-10-11T02:59:01.901Z,0.00
2018-10-11T03:00:01.898Z,0.00
2018-10-11T03:01:01.898Z,0.00
2018-10-11T03:02:01.894Z,0.00
2018-10-11T03:03:01.891Z,0.00
2018-10-11T03:04:01.887Z,0.00
2018-10-11T03:05:01.884Z,0.00
2018-10-11T03:06:01.883Z,0.00
2018-10-11T03:07:01.879Z,0.00
2018-10-11T03:08:01.881Z,0.00
2018-10-11T03:09:01.873Z,0.00
2018-10-11T03:10:01.871Z,0.00
2018-10-11T03:11:01.868Z,0.00
2018-10-11T03:12:01.868Z,0.00
2018-10-11T03:13:01.864Z,0.00
2018-10-11T03:14:01.859Z,0.00
2018-10-11T03:15:01.859Z,0.00
2018-10-11T03:16:01.856Z,0.00
2018-10-11T03:17:01.854Z,0.00
2018-10-11T03:18:01.848Z,0.00
2018-10-11T03:19:01.844Z,0.00
2018-10-11T03:20:01.842Z,0.00
2018-10-11T03:21:01.839Z,0.00
2018-10-11T03:22:01.836Z,0.00
2018-10-11T03:23:01.837Z,0.00
2018-10-11T03:24:01.830Z,0.00
2018-10-11T03:25:01.828Z,0.00
2018-10-11T03:26:01.824Z,0.00
2018-10-11T03:27:01.820Z,0.00
2018-10-11T03:28:01.821Z,0.00
2018-10-11T03:29:01.818Z,0.00
2018-10-11T03:30:01.813Z,0.00
2018-10-11T03:31:01.809Z,0.00
2018-10-11T03:32:01.811Z,0.00
2018-10-11T03:33:01.808Z,0.00
2018-10-11T03:34:01.807Z,0.00
2018-10-11T03:35:01.800Z,0.00
2018-10-11T03:36:01.793Z,0.00
2018-10-11T03:37:01.791Z,0.00
2018-10-11T03:38:01.790Z,0.00
2018-10-11T03:39:01.785Z,0.00
2018-10-11T03:40:01.784Z,0.00
2018-10-11T03:41:01.778Z,0.00
2018-10-11T03:42:01.776Z,0.00
2018-10-11T03:43:01.773Z,0.00
2018-10-11T03:44:01.770Z,0.00
2018-10-11T03:45:01.768Z,0.00
2018-10-11T03:46:01.764Z,0.00
2018-10-11T03:47:01.762Z,0.00
2018-10-11T03:48:01.758Z,0.00
2018-10-11T03:49:01.755Z,0.00
2018-10-11T03:50:01.751Z,0.00
2018-10-11T03:51:01.747Z,0.00
2018-10-11T03:52:01.743Z,0.00
2018-10-11T03:53:01.742Z,0.00
2018-10-11T03:54:01.738Z,0.00
2018-10-11T03:55:01.737Z,0.00
2018-10-11T03:56:01.732Z,0.00
2018-10-11T03:57:01.730Z,0.00
2018-10-11T03:58:01.773Z,0.00
2018-10-11T03:59:01.726Z,0.00
2018-10-11T04:00:01.722Z,0.00
2018-10-11T04:01:01.716Z,0.00
2018-10-11T04:02:01.715Z,0.00
2018-10-11T04:03:01.710Z,0.00
2018-10-11T04:04:01.708Z,0.00
2018-10-11T04:05:01.704Z,0.00
2018-10-11T04:06:01.700Z,0.00
2018-10-11T04:07:01.696Z,0.00
2018-10-11T04:08:01.694Z,0.00
2018-10-11T04:09:01.690Z,0.00
2018-10-11T04:10:01.688Z,0.00
2018-10-11T04:11:01.684Z,0.00
2018-10-11T04:12:01.682Z,0.00
2018-10-11T04:13:01.678Z,0.00
2018-10-11T04:14:01.673Z,0.00
2018-10-11T04:15:01.670Z,0.00
2018-10-11T04:16:01.667Z,0.00
2018-10-11T04:17:01.665Z,0.00
2018-10-11T04:18:01.660Z,0.00
2018-10-11T04:19:01.657Z,0.00
2018-10-11T04:20:01.653Z,0.00
2018-10-11T04:21:01.650Z,0.00
2018-10-11T04:22:01.647Z,0.00
2018-10-11T04:23:01.644Z,0.00
2018-10-11T04:24:01.639Z,0.00
2018-10-11T04:25:01.636Z,0.00
2018-10-11T04:26:01.636Z,0.00
2018-10-11T04:27:01.629Z,0.00
2018-10-11T04:28:01.627Z,0.00
2018-10-11T04:29:01.623Z,0.00
2018-10-11T04:30:01.690Z,0.00
2018-10-11T04:31:01.615Z,0.00
2018-10-11T04:32:01.615Z,0.00
2018-10-11T04:33:01.612Z,0.00
2018-10-11T04:34:01.607Z,0.00
2018-10-11T04:35:01.605Z,0.00
2018-10-11T04:36:01.630Z,0.00
2018-10-11T04:37:01.597Z,0.00
2018-10-11T04:38:01.593Z,0.00
2018-10-11T04:39:01.590Z,0.00
2018-10-11T04:40:01.624Z,0.00
2018-10-11T04:41:01.585Z,0.00
2018-10-11T04:42:01.580Z,0.00
2018-10-11T04:43:01.744Z,0.00
2018-10-11T04:44:01.573Z,0.00
2018-10-11T04:45:01.572Z,0.00
2018-10-11T04:46:01.565Z,0.00
2018-10-11T04:47:01.563Z,0.00
2018-10-11T04:48:01.557Z,0.00
2018-10-11T04:49:01.554Z,0.00
2018-10-11T04:50:01.552Z,0.00
2018-10-11T04:51:01.546Z,0.00
2018-10-11T04:52:01.544Z,0.00
2018-10-11T04:53:01.541Z,0.00
2018-10-11T04:54:01.537Z,0.00
2018-10-11T04:55:01.533Z,0.00
2018-10-11T04:56:01.528Z,0.00
2018-10-11T04:57:01.527Z,0.00
2018-10-11T04:58:01.523Z,0.00
2018-10-11T04:59:01.518Z,0.00
2018-10-11T05:00:01.516Z,0.00
2018-10-11T05:01:01.512Z,0.00
2018-10-11T05:02:01.509Z,0.00
2018-10-11T05:03:01.503Z,0.00
2018-10-11T05:04:01.501Z,0.00
2018-10-11T05:05:01.497Z,0.00
2018-10-11T05:06:01.495Z,0.00
2018-10-11T05:07:01.489Z,0.00
2018-10-11T05:08:01.486Z,0.00
2018-10-11T05:09:01.483Z,0.00
2018-10-11T05:10:01.479Z,0.00
2018-10-11T05:11:01.475Z,0.00
2018-10-11T05:12:01.471Z,0.00
2018-10-11T05:13:01.471Z,0.00
2018-10-11T05:14:01.466Z,0.00
2018-10-11T05:15:01.462Z,0.00
2018-10-11T05:16:01.457Z,4.00
2018-10-11T05:17:01.454Z,4.00
2018-10-11T05:18:01.452Z,0.00
2018-10-11T05:19:01.445Z,4.00
2018-10-11T05:20:01.448Z,0.00
2018-10-11T05:21:01.440Z,4.00
2018-10-11T05:22:01.436Z,4.00
2018-10-11T05:23:01.432Z,4.00
2018-10-11T05:24:01.428Z,4.00
2018-10-11T05:25:01.425Z,8.00
2018-10-11T05:26:01.466Z,8.00
2018-10-11T05:27:01.416Z,12.00
2018-10-11T05:28:01.413Z,12.00
2018-10-11T05:29:01.409Z,16.00
2018-10-11T05:30:01.408Z,20.00
2018-10-11T05:31:01.404Z,24.00
2018-10-11T05:32:01.402Z,24.00
2018-10-11T05:33:01.397Z,32.00
2018-10-11T05:34:01.396Z,36.00
2018-10-11T05:35:01.388Z,40.00
2018-10-11T05:36:01.383Z,48.00
2018-10-11T05:37:01.380Z,52.00
2018-10-11T05:38:01.425Z,60.00
2018-10-11T05:39:01.374Z,72.00
2018-10-11T05:40:01.372Z,76.00
2018-10-11T05:41:01.367Z,88.00
2018-10-11T05:42:01.366Z,96.00
2018-10-11T05:43:01.358Z,108.00
2018-10-11T05:44:01.371Z,120.00
2018-10-11T05:45:01.352Z,136.00
2018-10-11T05:46:01.352Z,148.00
2018-10-11T05:47:01.349Z,164.00
2018-10-11T05:48:01.340Z,176.00
2018-10-11T05:49:01.336Z,192.00
2018-10-11T05:50:01.342Z,208.00
2018-10-11T05:51:01.327Z,228.00
2018-10-11T05:52:01.325Z,244.00
2018-10-11T05:53:01.322Z,268.00
2018-10-11T05:54:01.318Z,288.00
2018-10-11T05:55:01.325Z,308.00
2018-10-11T05:56:01.308Z,332.00
2018-10-11T05:57:01.308Z,356.00
2018-10-11T05:58:01.305Z,376.00
2018-10-11T05:59:01.298Z,404.00
2018-10-11T06:00:01.294Z,428.00
2018-10-11T06:01:01.290Z,456.00
2018-10-11T06:02:01.287Z,480.00
2018-10-11T06:03:01.282Z,508.00
2018-10-11T06:04:01.336Z,540.00
2018-10-11T06:05:01.276Z,568.00
2018-10-11T06:06:01.272Z,596.00
2018-10-11T06:07:01.276Z,624.00
2018-10-11T06:08:01.264Z,652.00
2018-10-11T06:09:01.259Z,684.00
2018-10-11T06:10:01.258Z,712.00
2018-10-11T06:11:01.252Z,748.00
2018-10-11T06:12:01.317Z,776.00
2018-10-11T06:13:01.245Z,808.00
2018-10-11T06:14:01.243Z,836.00
2018-10-11T06:15:01.238Z,868.00
2018-10-11T06:16:01.232Z,900.00
2018-10-11T06:17:01.230Z,932.00
2018-10-11T06:18:01.227Z,960.00
2018-10-11T06:19:01.222Z,992.00
2018-10-11T06:20:01.218Z,1024.00
2018-10-11T06:21:01.214Z,1052.00
2018-10-11T06:22:01.216Z,1080.00
2018-10-11T06:23:01.208Z,1108.00
2018-10-11T06:24:01.204Z,1140.00
2018-10-11T06:25:01.203Z,1168.00
2018-10-11T06:26:01.197Z,1204.00
2018-10-11T06:27:01.191Z,1232.00
2018-10-11T06:28:01.197Z,1268.00
2018-10-11T06:29:01.185Z,1296.00
2018-10-11T06:30:01.182Z,1328.00
2018-10-11T06:31:01.176Z,1352.00
2018-10-11T06:32:01.175Z,1380.00
2018-10-11T06:33:01.171Z,1416.00
2018-10-11T06:34:01.166Z,1444.00
2018-10-11T06:35:01.162Z,1468.00
2018-10-11T06:36:01.171Z,1500.00
2018-10-11T06:37:01.154Z,1520.00
2018-10-11T06:38:01.153Z,1556.00
2018-10-11T06:39:01.148Z,1580.00
2018-10-11T06:40:01.145Z,1608.00
2018-10-11T06:41:01.140Z,1644.00
2018-10-11T06:42:01.233Z,1680.00
2018-10-11T06:43:01.133Z,1708.00
2018-10-11T06:44:01.128Z,1736.00
2018-10-11T06:45:01.126Z,1764.00
2018-10-11T06:46:01.122Z,1792.00
2018-10-11T06:47:01.118Z,1816.00
2018-10-11T06:48:01.114Z,1848.00
2018-10-11T06:49:01.111Z,1880.00
2018-10-11T06:50:01.200Z,1916.00
2018-10-11T06:51:01.152Z,1948.00
2018-10-11T06:52:01.101Z,1984.00
2018-10-11T06:53:01.098Z,2024.00
2018-10-11T06:54:01.095Z,2052.00
2018-10-11T06:55:01.092Z,2088.00
2018-10-11T06:56:01.134Z,2116.00
2018-10-11T06:57:01.084Z,2136.00
2018-10-11T06:58:01.079Z,2160.00
2018-10-11T06:59:01.078Z,2196.00
2018-10-11T07:00:01.073Z,2224.00
2018-10-11T07:01:01.070Z,2256.00
2018-10-11T07:02:01.067Z,2292.00
2018-10-11T07:03:01.062Z,2320.00
2018-10-11T07:04:01.059Z,2352.00
2018-10-11T07:05:01.057Z,2392.00
2018-10-11T07:06:01.053Z,2420.00
2018-10-11T07:07:01.050Z,2444.00
2018-10-11T07:08:01.046Z,2460.00
2018-10-11T07:09:01.042Z,2492.00
2018-10-11T07:10:01.039Z,2516.00
2018-10-11T07:11:01.037Z,2548.00
2018-10-11T07:12:01.033Z,2572.00
2018-10-11T07:13:01.030Z,2588.00
2018-10-11T07:14:01.110Z,2620.00
2018-10-11T07:15:01.023Z,2660.00
2018-10-11T07:16:01.021Z,2692.00
2018-10-11T07:17:01.017Z,2712.00
2018-10-11T07:18:01.015Z,2744.00
2018-10-11T07:19:01.010Z,2772.00
2018-10-11T07:20:01.009Z,2784.00
2018-10-11T07:21:01.006Z,2812.00
2018-10-11T07:22:01.003Z,2820.00
2018-10-11T07:23:00.999Z,2852.00
2018-10-11T07:24:00.995Z,2864.00
2018-10-11T07:25:00.997Z,2888.00
2018-10-11T07:26:00.999Z,2928.00
2018-10-11T07:27:00.987Z,2956.00
2018-10-11T07:28:00.984Z,3008.00
2018-10-11T07:29:00.982Z,3040.00
2018-10-11T07:30:00.980Z,3068.00
2018-10-11T07:31:00.977Z,3092.00
2018-10-11T07:32:00.973Z,3104.00
2018-10-11T07:33:00.971Z,3124.00
2018-10-11T07:34:00.969Z,3136.00
2018-10-11T07:35:01.009Z,3160.00
2018-10-11T07:36:00.962Z,3188.00
2018-10-11T07:37:00.960Z,3220.00
2018-10-11T07:38:00.959Z,3244.00
2018-10-11T07:39:00.955Z,3292.00
2018-10-11T07:40:00.954Z,3332.00
2018-10-11T07:41:01.024Z,3344.00
2018-10-11T07:42:00.948Z,3340.00
2018-10-11T07:43:00.945Z,3344.00
2018-10-11T07:44:00.942Z,3352.00
2018-10-11T07:45:00.940Z,3372.00
2018-10-11T07:46:00.939Z,3384.00
2018-10-11T07:47:00.971Z,3404.00
2018-10-11T07:48:00.933Z,3440.00
2018-10-11T07:49:00.932Z,3460.00
2018-10-11T07:50:00.930Z,3480.00
2018-10-11T07:51:00.926Z,3508.00
2018-10-11T07:52:00.924Z,3532.00
2018-10-11T07:53:00.961Z,3532.00
2018-10-11T07:54:00.921Z,3552.00
2018-10-11T07:55:00.917Z,3568.00
2018-10-11T07:56:00.918Z,3612.00
2018-10-11T07:57:00.913Z,3636.00
2018-10-11T07:58:00.912Z,3636.00
2018-10-11T07:59:00.909Z,3704.00
2018-10-11T08:00:00.907Z,3716.00
2018-10-11T08:01:00.925Z,3748.00
2018-10-11T08:02:00.904Z,3796.00
2018-10-11T08:03:00.900Z,3796.00
2018-10-11T08:04:00.900Z,3828.00
2018-10-11T08:05:00.901Z,3896.00
2018-10-11T08:06:00.896Z,3900.00
2018-10-11T08:07:00.914Z,3896.00
2018-10-11T08:08:00.893Z,3924.00
2018-10-11T08:09:00.900Z,3936.00
2018-10-11T08:10:00.888Z,3948.00
2018-10-11T08:11:01.021Z,4008.00
2018-10-11T08:12:01.072Z,4008.00
2018-10-11T08:13:00.883Z,4048.00
2018-10-11T08:14:00.881Z,4100.00
2018-10-11T08:15:00.883Z,4116.00
2018-10-11T08:16:00.901Z,4144.00
2018-10-11T08:17:01.014Z,4172.00
2018-10-11T08:18:01.191Z,4188.00
2018-10-11T08:19:01.012Z,4208.00
2018-10-11T08:20:01.016Z,4224.00
2018-10-11T08:21:00.870Z,4264.00
2018-10-11T08:22:00.868Z,4280.00
2018-10-11T08:23:00.866Z,4296.00
2018-10-11T08:24:00.866Z,4308.00
2018-10-11T08:25:00.966Z,4328.00
2018-10-11T08:26:01.276Z,4364.00
2018-10-11T08:27:00.910Z,4404.00
2018-10-11T08:28:00.862Z,4440.00
2018-10-11T08:29:00.859Z,4484.00
2018-10-11T08:30:00.859Z,4508.00
2018-10-11T08:31:00.856Z,4548.00
2018-10-11T08:32:00.856Z,4572.00
2018-10-11T08:33:00.895Z,4544.00
2018-10-11T08:34:00.853Z,4536.00
2018-10-11T08:35:00.851Z,4576.00
2018-10-11T08:36:00.849Z,4596.00
2018-10-11T08:37:00.853Z,4628.00
2018-10-11T08:38:01.016Z,4636.00
2018-10-11T08:39:00.845Z,4652.00
2018-10-11T08:40:00.844Z,4628.00
2018-10-11T08:41:00.845Z,4628.00
2018-10-11T08:42:00.845Z,4648.00
2018-10-11T08:43:00.842Z,4636.00
2018-10-11T08:44:00.911Z,4636.00
2018-10-11T08:45:00.841Z,4656.00
2018-10-11T08:46:00.840Z,4652.00
2018-10-11T08:47:00.838Z,4676.00
2018-10-11T08:48:00.838Z,4712.00
2018-10-11T08:49:00.844Z,4724.00
2018-10-11T08:50:00.837Z,4716.00
2018-10-11T08:51:00.835Z,4728.00
2018-10-11T08:52:00.835Z,4764.00
2018-10-11T08:53:00.837Z,4768.00
2018-10-11T08:54:00.833Z,4748.00
2018-10-11T08:55:00.833Z,4752.00
2018-10-11T08:56:00.870Z,4776.00
2018-10-11T08:57:00.830Z,4780.00
2018-10-11T08:58:00.831Z,4784.00
2018-10-11T08:59:00.861Z,4820.00
2018-10-11T09:00:00.833Z,4856.00
2018-10-11T09:01:00.829Z,4896.00
2018-10-11T09:02:00.828Z,4932.00
2018-10-11T09:03:00.828Z,4964.00
2018-10-11T09:04:00.989Z,4996.00
2018-10-11T09:05:00.877Z,5020.00
2018-10-11T09:06:00.827Z,5040.00
2018-10-11T09:07:00.827Z,5044.00
2018-10-11T09:08:00.826Z,5076.00
2018-10-11T09:09:00.826Z,5128.00
2018-10-11T09:10:00.825Z,5124.00
2018-10-11T09:11:00.899Z,5128.00
2018-10-11T09:12:00.824Z,5128.00
2018-10-11T09:13:00.824Z,5240.00
2018-10-11T09:14:00.824Z,14604.00
2018-10-11T09:15:00.823Z,31072.00
2018-10-11T09:16:00.826Z,38752.00
2018-10-11T09:17:00.826Z,35104.00
2018-10-11T09:18:00.825Z,38752.00
2018-10-11T09:19:00.829Z,44864.00
2018-10-11T09:20:00.826Z,39680.00
2018-10-11T09:21:00.828Z,34144.00
2018-10-11T09:22:00.829Z,32896.00
2018-10-11T09:23:00.834Z,35808.00
2018-10-11T09:24:00.836Z,39136.00
2018-10-11T09:25:00.840Z,37056.00
2018-10-11T09:26:00.844Z,35168.00
2018-10-11T09:27:00.844Z,34336.00
2018-10-11T09:28:00.850Z,34048.00
2018-10-11T09:29:00.855Z,35168.00
2018-10-11T09:30:00.860Z,34272.00
2018-10-11T09:31:00.866Z,33696.00
2018-10-11T09:32:00.872Z,37760.00
2018-10-11T09:33:00.877Z,38144.00
2018-10-11T09:34:00.884Z,36256.00
2018-10-11T09:35:00.890Z,36992.00
2018-10-11T09:36:00.899Z,37504.00
2018-10-11T09:37:00.906Z,39872.00
2018-10-11T09:38:00.913Z,37152.00
2018-10-11T09:39:00.920Z,35584.00
2018-10-11T09:40:00.928Z,37088.00
2018-10-11T09:41:00.938Z,36928.00
2018-10-11T09:42:00.945Z,34592.00
2018-10-11T09:43:01.574Z,36672.00
2018-10-11T09:44:00.963Z,36416.00
2018-10-11T09:45:00.973Z,41632.00
2018-10-11T09:46:00.982Z,41920.00
2018-10-11T09:47:00.990Z,39456.00
2018-10-11T09:48:00.999Z,40736.00
2018-10-11T09:49:01.010Z,45856.00
2018-10-11T09:50:01.022Z,44832.00
2018-10-11T09:51:01.030Z,47488.00
2018-10-11T09:52:01.042Z,49920.00
2018-10-11T09:53:01.048Z,50016.00
2018-10-11T09:54:01.061Z,56224.00
2018-10-11T09:55:01.070Z,61696.00
2018-10-11T09:56:01.402Z,65120.00
2018-10-11T09:57:01.090Z,66752.00
2018-10-11T09:58:01.102Z,69376.00
2018-10-11T09:59:01.112Z,62720.00
2018-10-11T10:00:01.123Z,60256.00
2018-10-11T10:01:01.135Z,62816.00
2018-10-11T10:02:01.163Z,61504.00
2018-10-11T10:03:01.156Z,54560.00
2018-10-11T10:04:01.167Z,47104.00
2018-10-11T10:05:01.183Z,41472.00
2018-10-11T10:06:01.189Z,39072.00
2018-10-11T10:07:01.200Z,37120.00
2018-10-11T10:08:01.211Z,36096.00
2018-10-11T10:09:01.223Z,36800.00
2018-10-11T10:10:01.342Z,36608.00
2018-10-11T10:11:01.244Z,34176.00
2018-10-11T10:12:01.255Z,25888.00
2018-10-11T10:13:01.267Z,15772.00
2018-10-11T10:14:01.279Z,8360.00
2018-10-11T10:15:01.290Z,8968.00
2018-10-11T10:16:01.303Z,8372.00
2018-10-11T10:17:01.313Z,6464.00
2018-10-11T10:18:01.324Z,6988.00
2018-10-11T10:19:01.334Z,10012.00
2018-10-11T10:20:01.347Z,10916.00
2018-10-11T10:21:01.369Z,9244.00
2018-10-11T10:22:01.369Z,7448.00
2018-10-11T10:23:01.379Z,6432.00
2018-10-11T10:24:01.390Z,5848.00
2018-10-11T10:25:01.399Z,5804.00
2018-10-11T10:26:01.410Z,5608.00
2018-10-11T10:27:01.492Z,5584.00
2018-10-11T10:28:01.430Z,5544.00
2018-10-11T10:29:01.439Z,5592.00
2018-10-11T10:30:01.449Z,5460.00
2018-10-11T10:31:01.458Z,5376.00
2018-10-11T10:32:01.466Z,5524.00
2018-10-11T10:33:01.477Z,5492.00
2018-10-11T10:34:01.580Z,5748.00
2018-10-11T10:35:01.493Z,5596.00
2018-10-11T10:36:01.501Z,5552.00
2018-10-11T10:37:01.508Z,5560.00
2018-10-11T10:38:04.139Z,5632.00
2018-10-11T10:39:01.526Z,5648.00
2018-10-11T10:40:01.636Z,5644.00
2018-10-11T10:41:01.540Z,5632.00
2018-10-11T10:42:01.546Z,5384.00
2018-10-11T10:43:01.553Z,5440.00
2018-10-11T10:44:01.561Z,5440.00
2018-10-11T10:45:01.567Z,5932.00
2018-10-11T10:46:01.577Z,6020.00
2018-10-11T10:47:01.581Z,5136.00
2018-10-11T10:48:01.587Z,5200.00
2018-10-11T10:49:01.596Z,4736.00
2018-10-11T10:50:01.600Z,5312.00
2018-10-11T10:51:01.606Z,5428.00
2018-10-11T10:52:01.612Z,5424.00
2018-10-11T10:53:01.619Z,5208.00
2018-10-11T10:54:01.627Z,5188.00
2018-10-11T10:55:01.631Z,5368.00
2018-10-11T10:56:01.639Z,5476.00
2018-10-11T10:57:01.646Z,5576.00
2018-10-11T10:58:01.651Z,5920.00
2018-10-11T10:59:01.663Z,5932.00
2018-10-11T11:00:01.662Z,5860.00
2018-10-11T11:01:01.667Z,5776.00
2018-10-11T11:02:01.672Z,5712.00
2018-10-11T11:03:01.677Z,5892.00
2018-10-11T11:04:01.685Z,5620.00
2018-10-11T11:05:01.691Z,4984.00
2018-10-11T11:06:01.715Z,5260.00
2018-10-11T11:07:01.701Z,4996.00
2018-10-11T11:08:01.707Z,4988.00
2018-10-11T11:09:01.711Z,4996.00
2018-10-11T11:10:01.717Z,5344.00
2018-10-11T11:11:01.724Z,5176.00
2018-10-11T11:12:01.730Z,4900.00
2018-10-11T11:13:01.795Z,4628.00
2018-10-11T11:14:01.738Z,4600.00
2018-10-11T11:15:01.746Z,4356.00
2018-10-11T11:16:01.751Z,4604.00
2018-10-11T11:17:01.757Z,4256.00
2018-10-11T11:18:01.760Z,4272.00
2018-10-11T11:19:01.867Z,4316.00
2018-10-11T11:20:01.769Z,5348.00
2018-10-11T11:21:01.775Z,5440.00
2018-10-11T11:22:01.780Z,5216.00
2018-10-11T11:23:01.785Z,5228.00
2018-10-11T11:24:01.790Z,5060.00
2018-10-11T11:25:01.800Z,5196.00
2018-10-11T11:26:01.804Z,5264.00
2018-10-11T11:27:01.804Z,5068.00
2018-10-11T11:28:01.809Z,5592.00
2018-10-11T11:29:01.814Z,5444.00
2018-10-11T11:30:01.820Z,5816.00
2018-10-11T11:31:01.835Z,5960.00
2018-10-11T11:32:01.828Z,5820.00
2018-10-11T11:33:01.835Z,5924.00
2018-10-11T11:34:01.840Z,5892.00
2018-10-11T11:35:01.848Z,5964.00
2018-10-11T11:36:01.847Z,6024.00
2018-10-11T11:37:01.855Z,5812.00
2018-10-11T11:38:01.857Z,5600.00
2018-10-11T11:39:01.863Z,5716.00
2018-10-11T11:40:01.886Z,5500.00
2018-10-11T11:41:01.874Z,5776.00
2018-10-11T11:42:01.877Z,5000.00
2018-10-11T11:43:01.881Z,5380.00
2018-10-11T11:44:01.887Z,4828.00
2018-10-11T11:45:01.892Z,5008.00
2018-10-11T11:46:01.897Z,4996.00
2018-10-11T11:47:01.901Z,4428.00
2018-10-11T11:48:01.906Z,4452.00
2018-10-11T11:49:01.916Z,4808.00
2018-10-11T11:50:01.916Z,5236.00
2018-10-11T11:51:01.920Z,5372.00
2018-10-11T11:52:01.931Z,5256.00
2018-10-11T11:53:01.976Z,4976.00
2018-10-11T11:54:01.936Z,4628.00
2018-10-11T11:55:01.947Z,4040.00
2018-10-11T11:56:01.944Z,3904.00
2018-10-11T11:57:01.950Z,3488.00
2018-10-11T11:58:02.064Z,3372.00
2018-10-11T11:59:01.959Z,3688.00
2018-10-11T12:00:01.965Z,4180.00
2018-10-11T12:01:01.968Z,4664.00
2018-10-11T12:02:01.996Z,4784.00
2018-10-11T12:03:01.977Z,4880.00
2018-10-11T12:04:01.982Z,4920.00
2018-10-11T12:05:02.039Z,4524.00
2018-10-11T12:06:01.992Z,4604.00
2018-10-11T12:07:01.996Z,4708.00
2018-10-11T12:08:02.001Z,4616.00
2018-10-11T12:09:02.004Z,4732.00
2018-10-11T12:10:02.009Z,4900.00
2018-10-11T12:11:02.085Z,4220.00
2018-10-11T12:12:02.017Z,4232.00
2018-10-11T12:13:02.022Z,4216.00
2018-10-11T12:14:02.029Z,4360.00
2018-10-11T12:15:02.030Z,4596.00
2018-10-11T12:16:02.036Z,4788.00
2018-10-11T12:17:02.041Z,4828.00
2018-10-11T12:18:02.047Z,4412.00
2018-10-11T12:19:02.049Z,4392.00
2018-10-11T12:20:02.055Z,4460.00
2018-10-11T12:21:02.057Z,3744.00
2018-10-11T12:22:02.078Z,4272.00
2018-10-11T12:23:02.067Z,4332.00
2018-10-11T12:24:02.071Z,4540.00
2018-10-11T12:25:02.121Z,4672.00
2018-10-11T12:26:02.120Z,4676.00
2018-10-11T12:27:02.085Z,4572.00
2018-10-11T12:28:02.089Z,4208.00
2018-10-11T12:29:02.169Z,3360.00
2018-10-11T12:30:02.101Z,3108.00
2018-10-11T12:31:02.104Z,3068.00
2018-10-11T12:32:02.108Z,3424.00
2018-10-11T12:33:02.112Z,3248.00
2018-10-11T12:34:02.118Z,3148.00
2018-10-11T12:35:02.127Z,3132.00